Have a Safe July 4th! 

Flight Track Log - Related Links

Times and Time Zones

All times are in EDT time to prevent confusion due to time zone crossing. See the N892WA flight status page for this flight to view local times or setup timezone preferences in your user account.

Time Position Orientation Groundspeed Altitude Reporting Facility
EDT Latitude Longitude Course Direction KTS MPH feet Rate Location/Type
Thu 12:43:38 PM 41.6000 -73.9333 197° South 139 160 2,000  Level New York TRACON
Thu 12:44:56 PM 41.6339 -73.9511 339° North 127 146 4,200 1,652 Climbing Boston Center
Thu 12:45:56 PM 41.6592 -73.9128 49° Northeast 110 127 5,800 1,850 Climbing Boston Center
Thu 12:46:56 PM 41.6869 -73.8661 51° Northeast 134 154 7,900 1,850 Climbing Boston Center
Thu 12:47:56 PM 41.7083 -73.8278 53° Northeast 141 162 9,500 1,600 Climbing Boston Center
Thu 12:48:56 PM 41.7358 -73.7867 48° Northeast 141 162 11,100 1,300 Climbing Boston Center
Thu 12:49:00 PM 41.6266 -73.8842 197° South  Level Estimated
Thu 12:49:56 PM 41.7717 -73.7650 24° Northeast 135 155 12,100  Level Boston Center
Thu 12:50:56 PM 41.8261 -73.7439 37° Northeast 177 204 12,700 850 Climbing Boston Center
Thu 12:51:00 PM 41.8370 -73.7463 37° Northeast  Level FlightAware Approximate
Thu 12:51:56 PM 41.8611 -73.7614 340° North 182 209 13,800  Level Boston Center
Thu 12:52:56 PM 41.9194 -73.7736 351° North 172 198 15,100 650 Climbing Boston Center
Thu 12:53:56 PM 41.9653 -73.7719 North 172 198 15,100  Level Boston Center
Thu 12:54:56 PM 42.0303 -73.7536 12° North 193 222 15,100 333 Level Boston Center
Thu 12:56:00 PM 41.9676 -73.7778 196° South  Level FlightAware Approximate
Thu 12:56:56 PM 42.1372 -73.6944 196° South 207 238 16,100  Level Boston Center
Thu 12:57:56 PM 42.1894 -73.6644 23° Northeast 207 238 16,700 950 Climbing Boston Center
Thu 12:58:56 PM 42.2356 -73.6403 21° North 195 224 18,000 1,100 Climbing Boston Center
Thu 12:59:56 PM 42.2672 -73.6211 24° Northeast 174 200 18,900 1,000 Climbing Boston Center
Thu 01:00:56 PM 42.3069 -73.5883 31° Northeast 153 176 20,000 550 Climbing Boston Center
Thu 01:01:56 PM 42.3553 -73.5667 18° North 147 169 20,000  Level Boston Center
Thu 01:02:56 PM 42.4097 -73.5367 22° Northeast 178 205 20,000  Level Boston Center
Thu 01:03:56 PM 42.4681 -73.5264 North 198 228 20,000  Level Boston Center
Thu 01:05:08 PM 42.5286 -73.5136 North 210 242 20,000  Level Boston Center
Thu 01:06:08 PM 42.6019 -73.4922 12° North 221 254 20,000  Level Boston Center
Thu 01:07:08 PM 42.6542 -73.4733 15° North 221 254 20,000  Level Boston Center
Thu 01:08:08 PM 42.7147 -73.4517 15° North 221 254 20,000  Level Boston Center
Thu 01:09:08 PM 42.7753 -73.4328 13° North 221 254 20,000 -300 Level Boston Center
Thu 01:10:08 PM 42.8361 -73.4142 13° North 221 254 19,400 -450 Descending Boston Center
Thu 01:11:08 PM 42.9050 -73.3869 16° North 221 254 19,100 -150 Descending Boston Center
Thu 01:12:08 PM 42.9636 -73.3622 17° North 221 254 19,100  Level Boston Center
Thu 01:13:08 PM 43.0033 -73.3514 11° North 221 254 19,100  Level Boston Center
Thu 01:14:20 PM 43.0675 -73.4006 331° Northwest 204 235 19,100  Level Boston Center
Thu 01:15:20 PM 43.1275 -73.4528 328° Northwest 203 234 19,100  Level Boston Center
Thu 01:16:20 PM 43.1833 -73.4936 332° Northwest 213 245 19,100  Level Boston Center
Thu 01:17:20 PM 43.2331 -73.5344 329° Northwest 213 245 19,100  Level Boston Center
Thu 01:18:20 PM 43.2847 -73.5753 330° Northwest 207 238 19,100  Level Boston Center
Thu 01:19:20 PM 43.3386 -73.6047 338° Northwest 207 238 19,100  Level Boston Center
Thu 01:20:20 PM 43.3928 -73.5858 14° North 191 220 19,100  Level Boston Center
Thu 01:21:20 PM 43.4475 -73.5583 20° North 191 220 19,100 -50 Level Boston Center
Thu 01:22:20 PM 43.5058 -73.5364 15° North 204 235 19,000 -50 Descending Boston Center
Thu 01:23:20 PM 43.5664 -73.5375 359° North 209 241 19,000  Level Boston Center
Thu 01:24:20 PM 43.6289 -73.5358 North 209 241 19,000  Level Boston Center
Thu 01:25:20 PM 43.6853 -73.5339 North 214 246 19,000  Level Boston Center
Thu 01:26:20 PM 43.7456 -73.5350 359° North 219 252 19,000  Level Boston Center
Thu 01:27:20 PM 43.8144 -73.5364 359° North 214 246 19,000  Level Boston Center
Thu 01:28:32 PM 43.8747 -73.5344 North 214 246 19,000  Level Boston Center
Thu 01:29:32 PM 43.9519 -73.5331 North 219 252 19,000  Level Boston Center
Thu 01:30:32 PM 44.0167 -73.5314 North 224 258 19,000  Level Boston Center
Thu 01:31:32 PM 44.0811 -73.5297 North 231 266 19,000  Level Boston Center
Thu 01:32:32 PM 44.1458 -73.5308 359° North 231 266 19,000  Level Boston Center
Thu 01:33:32 PM 44.2125 -73.5292 North 231 266 19,000  Level Boston Center
Thu 01:34:32 PM 44.2769 -73.5275 North 231 266 19,000  Level Boston Center
Thu 01:35:32 PM 44.3417 -73.5286 359° North 231 266 19,000  Level Boston Center
Thu 01:36:32 PM 44.4000 -73.5267 North 231 266 19,000  Level Boston Center
Thu 01:37:32 PM 44.4728 -73.5281 359° North 231 266 19,000  Level Boston Center
Thu 01:38:32 PM 44.5394 -73.5264 North 231 266 19,000 100 Level Boston Center
Thu 01:39:32 PM 44.6022 -73.5131 North 231 266 19,200 100 Climbing Boston Center
Thu 01:40:32 PM 44.6539 -73.5403 339° North 203 234 19,200 50 Level Boston Center
Thu 01:41:32 PM 44.6075 -73.6094 227° Southwest 122 140 19,300 50 Climbing Boston Center
Thu 01:42:32 PM 44.5328 -73.5933 171° South 154 177 19,300  Level Boston Center
Thu 01:43:32 PM 44.4700 -73.5950 181° South 224 258 19,300  Level Boston Center
Thu 01:44:32 PM 44.3742 -73.5961 180° South 279 321 19,300  Level Boston Center
Thu 01:45:32 PM 44.3181 -73.5950 179° South 284 327 19,300  Level Boston Center
Thu 01:46:32 PM 44.2158 -73.5958 180° South 290 334 19,300  Level Boston Center
Thu 01:47:32 PM 44.1389 -73.6000 182° South 290 334 19,300  Level Boston Center
Thu 01:48:32 PM 44.0597 -73.5986 179° South 290 334 19,300  Level Boston Center
Thu 01:49:32 PM 43.9761 -73.6028 182° South 290 334 19,300  Level Boston Center
Thu 01:50:32 PM 43.9011 -73.6011 179° South 290 334 19,300  Level Boston Center
Thu 01:51:32 PM 43.8219 -73.6025 181° South 290 334 19,300  Level Boston Center
Thu 01:52:32 PM 43.7450 -73.6039 181° South 290 334 19,300  Level Boston Center
Thu 01:53:32 PM 43.6761 -73.6056 181° South 285 328 19,300  Level Boston Center
Thu 01:54:32 PM 43.6117 -73.6044 179° South 279 321 19,300 -200 Level Boston Center
Thu 01:55:32 PM 43.5239 -73.6142 185° South 274 315 18,900 -950 Descending Boston Center
Thu 01:56:32 PM 43.4444 -73.6383 192° South 279 321 17,400 -1,300 Descending Boston Center
Thu 01:57:32 PM 43.3608 -73.6594 190° South 307 353 16,300 -1,300 Descending Boston Center
Thu 01:58:32 PM 43.2856 -73.6778 190° South 312 359 14,800 -1,050 Descending Boston Center
Thu 01:59:32 PM 43.1978 -73.7017 191° South 304 350 14,200 -700 Descending Boston Center
Thu 02:00:32 PM 43.1311 -73.7175 190° South 286 329 13,400 -850 Descending Boston Center
Thu 02:01:32 PM 43.0514 -73.7472 195° South 278 320 12,500 -400 Descending Boston Center
Thu 02:02:32 PM 42.9908 -73.7742 198° South 270 311 12,600  Climbing Boston Center
Thu 02:04:00 PM 42.8999 -73.7667 180° South  Level FlightAware Approximate
Thu 02:04:32 PM 42.8672 -73.8225 180° South 248 285 12,500  Level Boston Center
Thu 02:05:32 PM 42.8000 -73.8522 198° South 248 285 12,600 50 Climbing Boston Center
Thu 02:06:32 PM 42.7269 -73.8731 192° South 248 285 12,600 -50 Level Boston Center
Thu 02:07:32 PM 42.6581 -73.8828 186° South 248 285 12,500 -50 Descending Boston Center
Thu 02:08:32 PM 42.5872 -73.8867 182° South 248 285 12,500  Level Boston Center
Thu 02:09:32 PM 42.5183 -73.8936 184° South 255 293 12,500  Level Boston Center
Thu 02:10:32 PM 42.4494 -73.9003 184° South 255 293 12,500  Level Boston Center
Thu 02:11:32 PM 42.3806 -73.9017 181° South 250 288 12,500 -545 Level Boston Center
Thu 02:12:44 PM 42.3142 -73.8889 172° South 250 288 11,300 -1,318 Descending Boston Center
Thu 02:13:44 PM 42.2353 -73.8617 166° South 250 288 9,600 -1,450 Descending Boston Center
Thu 02:14:44 PM 42.1811 -73.8436 166° South 238 274 8,400 -1,250 Descending Boston Center
Thu 02:15:44 PM 42.1169 -73.8200 165° South 225 259 7,100 -1,349 Descending Boston Center
Thu 02:17:33 PM 42.0000 -73.7833 167° South 215 247 4,600 -1,136 Descending New York TRACON
Thu 02:18:33 PM 41.9500 -73.7833 180° South 209 241 3,900 -500 Descending New York TRACON
Thu 02:19:33 PM 41.9000 -73.7833 180° South 211 243 3,600 -238 Descending New York TRACON
Thu 02:20:39 PM 41.8333 -73.8000 191° South 208 239 3,400 -400 Descending New York TRACON
Thu 02:21:33 PM 41.7833 -73.8000 180° South 207 238 2,800 -470 Descending New York TRACON
Thu 02:22:34 PM 41.7333 -73.7833 166° South 186 214 2,500 -520 Descending New York TRACON
Thu 02:23:40 PM 41.6833 -73.8000 194° South 152 175 1,700 -524 Descending New York TRACON
Thu 02:24:40 PM 41.6667 -73.8333 236° Southwest 113 130 1,400 -600 Descending New York TRACON
Thu 02:25:40 PM 41.6333 -73.8667 217° Southwest 120 138 500 -900 Descending New York TRACON
Thu 02:27:00 PM 41.6167 -73.8833 189° South  Level FlightAware Approximate
Thu 02:34:00 PM 41.6266 -73.8842 189° South  Level Estimated
Thu 02:35:00 PM 41.6266 -73.8842 189° South  Level Estimated
Thu 02:36:00 PM 41.6266 -73.8842 189° South  Level Estimated

Login

Don't have an account? Register now (free) for customized features, flight alerts, and more!